createdAt,value
2023-05-10T00:00:17.539Z,96.03
2023-05-10T00:01:17.413Z,95.94
2023-05-10T00:02:17.515Z,95.83
2023-05-10T00:03:17.648Z,95.63
2023-05-10T00:04:17.766Z,95.53
2023-05-10T00:05:17.721Z,95.53
2023-05-10T00:06:17.816Z,95.63
2023-05-10T00:07:17.868Z,95.63
2023-05-10T00:08:17.961Z,95.94
2023-05-10T00:09:18.048Z,95.94
2023-05-10T00:10:18.337Z,95.94
2023-05-10T00:11:18.242Z,95.94
2023-05-10T00:12:18.308Z,96.03
2023-05-10T00:13:18.450Z,96.14
2023-05-10T00:14:18.443Z,96.23
2023-05-10T00:15:18.536Z,96.34
2023-05-10T00:16:18.646Z,96.23
2023-05-10T00:17:18.672Z,96.23
2023-05-10T00:18:18.775Z,96.14
2023-05-10T00:19:18.867Z,96.14
2023-05-10T00:20:19.155Z,96.23
2023-05-10T00:21:19.099Z,96.23
2023-05-10T00:22:19.109Z,96.03
2023-05-10T00:23:19.203Z,95.87
2023-05-10T00:24:19.285Z,95.94
2023-05-10T00:25:19.382Z,95.94
2023-05-10T00:26:21.276Z,95.83
2023-05-10T00:27:19.571Z,95.98
2023-05-10T00:28:19.650Z,96.08
2023-05-10T00:29:19.732Z,96.18
2023-05-10T00:30:19.816Z,96.14
2023-05-10T00:31:19.904Z,96.08
2023-05-10T00:32:20.091Z,95.98
2023-05-10T00:33:20.099Z,95.98
2023-05-10T00:34:20.179Z,96.18
2023-05-10T00:35:20.275Z,96.28
2023-05-10T00:36:20.358Z,96.28
2023-05-10T00:37:20.435Z,96.28
2023-05-10T00:38:20.485Z,96.48
2023-05-10T00:39:20.589Z,96.48
2023-05-10T00:40:20.669Z,96.54
2023-05-10T00:41:20.763Z,96.44
2023-05-10T00:42:20.877Z,96.44
2023-05-10T00:43:20.946Z,96.44
2023-05-10T00:44:21.017Z,96.44
2023-05-10T00:45:21.113Z,96.54
2023-05-10T00:46:21.214Z,96.34
2023-05-10T00:47:21.328Z,96.23
2023-05-10T00:48:21.338Z,96.14
2023-05-10T00:49:21.433Z,95.94
2023-05-10T00:50:21.489Z,95.94
2023-05-10T00:51:21.595Z,95.94
2023-05-10T00:52:21.691Z,95.94
2023-05-10T00:53:21.780Z,95.94
2023-05-10T00:54:21.844Z,95.94
2023-05-10T00:55:21.930Z,95.94
2023-05-10T00:56:22.016Z,95.94
2023-05-10T00:57:22.131Z,96.14
2023-05-10T00:58:22.180Z,96.23
2023-05-10T00:59:22.274Z,96.14
2023-05-10T01:00:22.371Z,96.08
2023-05-10T01:01:22.485Z,96.08
2023-05-10T01:02:22.778Z,96.08
2023-05-10T01:03:22.697Z,96.08
2023-05-10T01:04:22.711Z,95.87
2023-05-10T01:05:22.924Z,96.08
2023-05-10T01:06:22.867Z,96.18
2023-05-10T01:07:22.986Z,96.18
2023-05-10T01:08:23.028Z,96.34
2023-05-10T01:09:23.118Z,96.28
2023-05-10T01:10:23.181Z,96.08
2023-05-10T01:11:23.265Z,96.18
2023-05-10T01:12:23.441Z,96.28
2023-05-10T01:13:23.474Z,96.28
2023-05-10T01:14:23.508Z,96.28
2023-05-10T01:15:23.558Z,96.38
2023-05-10T01:16:23.684Z,96.38
2023-05-10T01:17:23.735Z,96.28
2023-05-10T01:18:23.786Z,96.38
2023-05-10T01:19:23.865Z,96.38
2023-05-10T01:20:23.956Z,96.38
2023-05-10T01:21:24.037Z,96.48
2023-05-10T01:22:24.118Z,96.38
2023-05-10T01:23:24.178Z,96.59
2023-05-10T01:24:24.275Z,96.59
2023-05-10T01:25:24.370Z,96.59
2023-05-10T01:26:24.448Z,96.59
2023-05-10T01:27:24.568Z,96.59
2023-05-10T01:28:24.639Z,96.48
2023-05-10T01:29:24.717Z,96.59
2023-05-10T01:30:24.950Z,96.69
2023-05-10T01:31:24.958Z,96.69
2023-05-10T01:32:26.856Z,96.69
2023-05-10T01:33:25.067Z,96.48
2023-05-10T01:34:25.119Z,96.28
2023-05-10T01:35:25.219Z,96.18
2023-05-10T01:36:25.308Z,96.08
2023-05-10T01:37:25.389Z,96.23
2023-05-10T01:38:25.481Z,96.28
2023-05-10T01:39:25.554Z,96.28
2023-05-10T01:40:25.631Z,96.28
2023-05-10T01:41:25.721Z,96.33
2023-05-10T01:42:25.785Z,96.23
2023-05-10T01:43:25.891Z,96.23
2023-05-10T01:44:25.918Z,96.12
2023-05-10T01:45:26.018Z,96.23
2023-05-10T01:46:26.150Z,96.23
2023-05-10T01:47:26.243Z,96.33
2023-05-10T01:48:26.289Z,96.33
2023-05-10T01:49:26.337Z,96.33
2023-05-10T01:50:26.423Z,96.43
2023-05-10T01:51:26.535Z,96.33
2023-05-10T01:52:26.577Z,96.33
2023-05-10T01:53:26.699Z,96.43
2023-05-10T01:54:26.759Z,96.43
2023-05-10T01:55:26.854Z,96.63
2023-05-10T01:56:26.932Z,96.53
2023-05-10T01:57:27.025Z,96.43
2023-05-10T01:58:27.095Z,96.43
2023-05-10T01:59:27.204Z,96.73
2023-05-10T02:00:27.337Z,97.04
2023-05-10T02:01:27.364Z,97.04
2023-05-10T02:02:27.487Z,97.24
2023-05-10T02:03:27.606Z,97.24
2023-05-10T02:04:27.652Z,97.24
2023-05-10T02:05:27.727Z,97.24
2023-05-10T02:06:27.794Z,97.04
2023-05-10T02:07:27.891Z,97.14
2023-05-10T02:08:27.992Z,97.14
2023-05-10T02:09:28.094Z,97.14
2023-05-10T02:10:28.126Z,97.24
2023-05-10T02:11:28.212Z,97.24
2023-05-10T02:12:28.290Z,97.34
2023-05-10T02:13:28.479Z,97.44
2023-05-10T02:14:28.465Z,97.55
2023-05-10T02:15:28.563Z,97.65
2023-05-10T02:16:28.654Z,97.65
2023-05-10T02:17:28.766Z,97.65
2023-05-10T02:18:28.826Z,97.75
2023-05-10T02:19:28.920Z,97.75
2023-05-10T02:20:29.006Z,97.75
2023-05-10T02:21:29.092Z,97.85
2023-05-10T02:22:29.172Z,97.85
2023-05-10T02:23:29.282Z,97.96
2023-05-10T02:24:29.323Z,98.11
2023-05-10T02:25:29.426Z,98.01
2023-05-10T02:26:29.509Z,98.01
2023-05-10T02:27:29.603Z,98.01
2023-05-10T02:28:29.666Z,98.01
2023-05-10T02:29:29.732Z,97.91
2023-05-10T02:30:29.813Z,97.85
2023-05-10T02:31:30.008Z,97.91
2023-05-10T02:32:29.997Z,98.11
2023-05-10T02:33:30.115Z,98.11
2023-05-10T02:34:30.134Z,98.21
2023-05-10T02:35:30.217Z,98.01
2023-05-10T02:36:30.302Z,97.71
2023-05-10T02:37:30.415Z,97.44
2023-05-10T02:38:30.487Z,97.34
2023-05-10T02:39:30.545Z,97.75
2023-05-10T02:40:30.618Z,97.96
2023-05-10T02:41:30.717Z,98.05
2023-05-10T02:42:30.797Z,98.16
2023-05-10T02:43:30.914Z,98.36
2023-05-10T02:44:30.972Z,98.36
2023-05-10T02:45:31.065Z,98.36
2023-05-10T02:46:31.181Z,98.36
2023-05-10T02:47:31.256Z,98.16
2023-05-10T02:48:31.296Z,97.96
2023-05-10T02:49:31.392Z,97.85
2023-05-10T02:50:31.469Z,97.96
2023-05-10T02:51:31.554Z,97.85
2023-05-10T02:52:31.629Z,97.85
2023-05-10T02:53:31.756Z,97.85
2023-05-10T02:54:31.798Z,98.05
2023-05-10T02:55:31.889Z,98.16
2023-05-10T02:56:31.971Z,98.26
2023-05-10T02:57:32.059Z,98.16
2023-05-10T02:58:32.155Z,98.05
2023-05-10T02:59:32.212Z,97.96
2023-05-10T03:00:32.260Z,97.85
2023-05-10T03:01:32.410Z,97.85
2023-05-10T03:02:32.531Z,97.75
2023-05-10T03:03:32.519Z,97.65
2023-05-10T03:04:32.633Z,97.65
2023-05-10T03:05:32.692Z,97.75
2023-05-10T03:06:32.747Z,97.71
2023-05-10T03:07:32.832Z,97.55
2023-05-10T03:08:32.928Z,97.55
2023-05-10T03:09:32.983Z,97.55
2023-05-10T03:10:33.063Z,97.44
2023-05-10T03:11:33.161Z,97.44
2023-05-10T03:12:33.214Z,97.44
2023-05-10T03:13:33.434Z,97.44
2023-05-10T03:14:33.399Z,97.55
2023-05-10T03:15:33.497Z,97.55
2023-05-10T03:16:33.618Z,97.65
2023-05-10T03:17:33.696Z,97.65
2023-05-10T03:18:33.734Z,97.75
2023-05-10T03:19:33.800Z,97.85
2023-05-10T03:20:33.882Z,97.75
2023-05-10T03:21:33.976Z,97.85
2023-05-10T03:22:34.032Z,97.85
2023-05-10T03:23:34.148Z,97.85
2023-05-10T03:24:34.190Z,97.96
2023-05-10T03:25:34.284Z,97.85
2023-05-10T03:26:34.373Z,97.85
2023-05-10T03:27:34.464Z,97.96
2023-05-10T03:28:34.568Z,97.85
2023-05-10T03:29:34.623Z,97.75
2023-05-10T03:30:34.723Z,97.85
2023-05-10T03:31:34.807Z,97.85
2023-05-10T03:32:34.901Z,97.96
2023-05-10T03:33:34.982Z,97.85
2023-05-10T03:34:35.021Z,97.85
2023-05-10T03:35:35.116Z,97.65
2023-05-10T03:36:35.167Z,97.65
2023-05-10T03:37:35.265Z,97.65
2023-05-10T03:38:35.374Z,97.60
2023-05-10T03:39:35.433Z,97.55
2023-05-10T03:40:35.515Z,97.44
2023-05-10T03:41:35.604Z,97.65
2023-05-10T03:42:35.660Z,97.75
2023-05-10T03:43:35.776Z,97.75
2023-05-10T03:44:35.829Z,97.75
2023-05-10T03:45:35.910Z,97.75
2023-05-10T03:46:36.008Z,97.85
2023-05-10T03:47:36.097Z,97.85
2023-05-10T03:48:36.201Z,97.96
2023-05-10T03:49:36.265Z,97.96
2023-05-10T03:50:36.350Z,97.96
2023-05-10T03:51:36.435Z,98.05
2023-05-10T03:52:36.520Z,98.05
2023-05-10T03:53:36.643Z,98.05
2023-05-10T03:54:36.677Z,98.16
2023-05-10T03:55:36.754Z,98.05
2023-05-10T03:56:36.836Z,98.16
2023-05-10T03:57:36.940Z,98.16
2023-05-10T03:58:37.035Z,98.26
2023-05-10T03:59:37.126Z,98.26
2023-05-10T04:00:37.232Z,98.36
2023-05-10T04:01:37.331Z,98.36
2023-05-10T04:02:38.269Z,98.36
2023-05-10T04:03:37.846Z,98.36
2023-05-10T04:04:37.515Z,98.36
2023-05-10T04:05:37.620Z,98.26
2023-05-10T04:06:37.711Z,98.26
2023-05-10T04:07:37.775Z,98.36
2023-05-10T04:08:37.859Z,98.36
2023-05-10T04:09:37.953Z,98.36
2023-05-10T04:10:38.033Z,98.36
2023-05-10T04:11:38.113Z,98.26
2023-05-10T04:12:38.191Z,98.16
2023-05-10T04:13:38.316Z,98.11
2023-05-10T04:14:38.372Z,98.05
2023-05-10T04:15:38.458Z,98.05
2023-05-10T04:16:38.555Z,98.11
2023-05-10T04:17:38.676Z,98.21
2023-05-10T04:18:38.718Z,98.21
2023-05-10T04:19:38.798Z,98.21
2023-05-10T04:20:38.885Z,98.11
2023-05-10T04:21:38.959Z,98.11
2023-05-10T04:22:39.043Z,98.11
2023-05-10T04:23:39.186Z,98.11
2023-05-10T04:24:39.238Z,98.11
2023-05-10T04:25:39.312Z,98.11
2023-05-10T04:26:39.399Z,98.21
2023-05-10T04:27:39.476Z,98.11
2023-05-10T04:28:39.578Z,98.21
2023-05-10T04:29:39.675Z,98.21
2023-05-10T04:30:39.739Z,98.21
2023-05-10T04:31:39.826Z,98.21
2023-05-10T04:32:39.911Z,98.32
2023-05-10T04:33:40.027Z,98.32
2023-05-10T04:34:40.066Z,98.32
2023-05-10T04:35:40.161Z,98.41
2023-05-10T04:36:40.243Z,98.32
2023-05-10T04:37:40.329Z,98.32
2023-05-10T04:38:40.434Z,98.32
2023-05-10T04:39:42.348Z,98.32
2023-05-10T04:40:40.566Z,98.41
2023-05-10T04:41:40.660Z,98.41
2023-05-10T04:42:40.735Z,98.41
2023-05-10T04:43:40.849Z,98.41
2023-05-10T04:44:40.900Z,98.32
2023-05-10T04:45:40.985Z,98.32
2023-05-10T04:46:41.179Z,98.32
2023-05-10T04:47:41.194Z,98.32
2023-05-10T04:48:41.289Z,98.32
2023-05-10T04:49:41.324Z,98.41
2023-05-10T04:50:41.404Z,98.41
2023-05-10T04:51:41.488Z,98.32
2023-05-10T04:52:41.570Z,98.32
2023-05-10T04:53:43.074Z,98.32
2023-05-10T04:54:41.745Z,98.41
2023-05-10T04:55:41.840Z,98.41
2023-05-10T04:56:41.915Z,98.32
2023-05-10T04:57:42.006Z,98.41
2023-05-10T04:58:42.109Z,98.41
2023-05-10T04:59:42.176Z,98.21
2023-05-10T05:00:42.248Z,98.21
2023-05-10T05:01:42.389Z,98.21
2023-05-10T05:02:42.572Z,98.21
2023-05-10T05:03:42.602Z,98.27
2023-05-10T05:04:42.586Z,98.27
2023-05-10T05:05:42.656Z,98.27
2023-05-10T05:06:42.738Z,98.27
2023-05-10T05:07:42.814Z,98.27
2023-05-10T05:08:42.940Z,98.16
2023-05-10T05:09:42.978Z,97.96
2023-05-10T05:10:43.058Z,97.86
2023-05-10T05:11:43.151Z,97.86
2023-05-10T05:12:43.264Z,97.86
2023-05-10T05:13:43.336Z,97.86
2023-05-10T05:14:43.398Z,97.76
2023-05-10T05:15:43.487Z,97.45
2023-05-10T05:16:43.590Z,97.45
2023-05-10T05:17:43.674Z,97.35
2023-05-10T05:18:43.722Z,97.25
2023-05-10T05:19:43.815Z,97.15
2023-05-10T05:20:43.904Z,97.15
2023-05-10T05:21:43.990Z,97.15
2023-05-10T05:22:44.069Z,97.05
2023-05-10T05:23:44.178Z,97.05
2023-05-10T05:24:44.223Z,96.95
2023-05-10T05:25:44.304Z,96.95
2023-05-10T05:26:44.393Z,96.75
2023-05-10T05:27:44.483Z,96.75
2023-05-10T05:28:44.592Z,96.75
2023-05-10T05:29:44.630Z,96.70
2023-05-10T05:30:44.721Z,96.70
2023-05-10T05:31:44.862Z,96.60
2023-05-10T05:32:44.919Z,96.19
2023-05-10T05:33:45.042Z,95.79
2023-05-10T05:34:45.016Z,95.48
2023-05-10T05:35:45.064Z,95.58
2023-05-10T05:36:45.160Z,95.48
2023-05-10T05:37:45.231Z,95.38
2023-05-10T05:38:45.336Z,95.23
2023-05-10T05:39:45.379Z,95.23
2023-05-10T05:40:45.475Z,95.03
2023-05-10T05:41:45.530Z,94.53
2023-05-10T05:42:45.626Z,94.12
2023-05-10T05:43:45.755Z,93.87
2023-05-10T05:44:45.801Z,93.87
2023-05-10T05:45:45.922Z,93.77
2023-05-10T05:46:45.951Z,93.37
2023-05-10T05:47:46.147Z,93.37
2023-05-10T05:48:46.115Z,92.96
2023-05-10T05:49:46.166Z,92.55
2023-05-10T05:50:46.250Z,92.45
2023-05-10T05:51:46.335Z,92.51
2023-05-10T05:52:46.421Z,92.41
2023-05-10T05:53:46.520Z,92.31
2023-05-10T05:54:46.562Z,92.21
2023-05-10T05:55:46.640Z,91.90
2023-05-10T05:56:46.724Z,91.70
2023-05-10T05:57:46.810Z,91.19
2023-05-10T05:58:46.914Z,90.99
2023-05-10T05:59:46.949Z,90.38
2023-05-10T06:00:47.028Z,90.28
2023-05-10T06:01:47.118Z,90.69
2023-05-10T06:02:47.292Z,90.79
2023-05-10T06:03:47.406Z,90.69
2023-05-10T06:04:47.369Z,90.38
2023-05-10T06:05:47.449Z,90.32
2023-05-10T06:06:47.539Z,90.42
2023-05-10T06:07:47.620Z,90.62
2023-05-10T06:08:47.729Z,91.03
2023-05-10T06:09:47.769Z,91.13
2023-05-10T06:10:47.853Z,90.73
2023-05-10T06:11:47.944Z,91.03
2023-05-10T06:12:48.068Z,91.03
2023-05-10T06:13:48.152Z,90.73
2023-05-10T06:14:48.222Z,90.73
2023-05-10T06:15:48.275Z,91.03
2023-05-10T06:16:48.439Z,90.83
2023-05-10T06:17:48.492Z,90.62
2023-05-10T06:18:48.549Z,90.53
2023-05-10T06:19:48.584Z,90.73
2023-05-10T06:20:48.677Z,90.62
2023-05-10T06:21:48.762Z,90.83
2023-05-10T06:22:48.853Z,90.93
2023-05-10T06:23:49.004Z,91.24
2023-05-10T06:24:49.033Z,90.83
2023-05-10T06:25:49.106Z,90.32
2023-05-10T06:26:49.189Z,90.53
2023-05-10T06:27:52.682Z,90.73
2023-05-10T06:28:49.383Z,91.03
2023-05-10T06:29:52.129Z,90.83
2023-05-10T06:30:49.509Z,90.53
2023-05-10T06:31:49.584Z,90.62
2023-05-10T06:32:49.725Z,90.88
2023-05-10T06:33:49.740Z,90.88
2023-05-10T06:34:49.807Z,90.77
2023-05-10T06:35:49.856Z,90.77
2023-05-10T06:36:49.958Z,90.77
2023-05-10T06:37:50.034Z,90.97
2023-05-10T06:38:50.129Z,90.97
2023-05-10T06:39:50.170Z,90.57
2023-05-10T06:40:50.256Z,89.96
2023-05-10T06:41:50.360Z,90.06
2023-05-10T06:42:50.432Z,90.26
2023-05-10T06:43:50.535Z,90.47
2023-05-10T06:44:50.616Z,90.57
2023-05-10T06:45:50.690Z,90.67
2023-05-10T06:46:50.827Z,90.67
2023-05-10T06:47:50.877Z,90.77
2023-05-10T06:48:50.944Z,90.88
2023-05-10T06:49:50.985Z,90.88
2023-05-10T06:50:51.102Z,91.17
2023-05-10T06:51:51.152Z,91.34
2023-05-10T06:52:53.066Z,91.44
2023-05-10T06:53:51.364Z,91.34
2023-05-10T06:54:51.419Z,91.13
2023-05-10T06:55:51.452Z,91.08
2023-05-10T06:56:51.552Z,91.28
2023-05-10T06:57:51.607Z,91.44
2023-05-10T06:58:51.721Z,91.44
2023-05-10T06:59:51.782Z,91.54
2023-05-10T07:00:51.899Z,91.64
2023-05-10T07:01:52.076Z,91.85
2023-05-10T07:02:52.201Z,91.85
2023-05-10T07:03:52.182Z,91.64
2023-05-10T07:04:52.248Z,91.64
2023-05-10T07:05:52.302Z,91.85
2023-05-10T07:06:52.397Z,91.64
2023-05-10T07:07:52.484Z,91.54
2023-05-10T07:08:52.593Z,91.39
2023-05-10T07:09:52.647Z,91.19
2023-05-10T07:10:52.722Z,91.19
2023-05-10T07:11:52.773Z,91.19
2023-05-10T07:12:52.936Z,90.99
2023-05-10T07:13:53.078Z,91.09
2023-05-10T07:14:53.023Z,90.99
2023-05-10T07:15:53.116Z,90.58
2023-05-10T07:16:53.174Z,90.08
2023-05-10T07:17:53.393Z,89.51
2023-05-10T07:18:53.355Z,89.72
2023-05-10T07:19:53.425Z,89.92
2023-05-10T07:20:53.560Z,90.12
2023-05-10T07:21:53.562Z,90.12
2023-05-10T07:22:53.654Z,90.48
2023-05-10T07:23:53.809Z,90.48
2023-05-10T07:24:53.808Z,90.38
2023-05-10T07:25:53.884Z,90.38
2023-05-10T07:26:53.970Z,90.38
2023-05-10T07:27:54.054Z,90.38
2023-05-10T07:28:54.164Z,90.48
2023-05-10T07:29:54.201Z,90.69
2023-05-10T07:30:54.300Z,90.38
2023-05-10T07:31:55.401Z,90.48
2023-05-10T07:32:54.463Z,90.69
2023-05-10T07:33:54.508Z,90.34
2023-05-10T07:34:54.560Z,89.73
2023-05-10T07:35:54.634Z,89.63
2023-05-10T07:36:54.727Z,89.53
2023-05-10T07:37:54.819Z,89.63
2023-05-10T07:38:55.332Z,89.23
2023-05-10T07:39:54.963Z,89.23
2023-05-10T07:40:55.038Z,89.12
2023-05-10T07:41:55.121Z,89.12
2023-05-10T07:42:55.210Z,89.28
2023-05-10T07:43:55.296Z,89.18
2023-05-10T07:44:55.397Z,89.08
2023-05-10T07:45:56.392Z,88.98
2023-05-10T07:46:55.516Z,88.84
2023-05-10T07:47:55.648Z,88.74
2023-05-10T07:48:55.674Z,88.94
2023-05-10T07:49:56.029Z,88.84
2023-05-10T07:50:55.830Z,88.43
2023-05-10T07:51:55.925Z,88.02
2023-05-10T07:52:55.996Z,87.12
2023-05-10T07:53:56.079Z,86.82
2023-05-10T07:54:56.204Z,86.00
2023-05-10T07:55:56.245Z,86.21
2023-05-10T07:56:56.330Z,86.51
2023-05-10T07:57:56.428Z,87.73
2023-05-10T07:58:56.510Z,87.32
2023-05-10T07:59:56.593Z,87.22
2023-05-10T08:00:56.665Z,86.87
2023-05-10T08:01:56.790Z,86.82
2023-05-10T08:02:56.930Z,87.73
2023-05-10T08:03:56.993Z,87.32
2023-05-10T08:04:57.018Z,87.32
2023-05-10T08:05:57.055Z,87.82
2023-05-10T08:06:57.153Z,87.38
2023-05-10T08:07:57.214Z,87.18
2023-05-10T08:08:57.304Z,87.18
2023-05-10T08:09:57.382Z,86.98
2023-05-10T08:10:57.475Z,86.98
2023-05-10T08:11:57.548Z,86.87
2023-05-10T08:12:57.809Z,87.28
2023-05-10T08:13:57.700Z,86.87
2023-05-10T08:14:57.803Z,87.08
2023-05-10T08:15:57.883Z,86.37
2023-05-10T08:16:57.944Z,86.07
2023-05-10T08:17:58.061Z,86.47
2023-05-10T08:18:58.161Z,86.98
2023-05-10T08:19:58.165Z,87.38
2023-05-10T08:20:58.256Z,87.79
2023-05-10T08:21:58.333Z,87.48
2023-05-10T08:22:58.429Z,87.18
2023-05-10T08:23:58.498Z,87.08
2023-05-10T08:24:58.620Z,86.93
2023-05-10T08:25:58.651Z,86.63
2023-05-10T08:26:58.742Z,86.53
2023-05-10T08:27:58.816Z,86.22
2023-05-10T08:28:58.913Z,86.63
2023-05-10T08:29:58.986Z,86.13
2023-05-10T08:30:59.132Z,85.78
2023-05-10T08:31:59.100Z,85.52
2023-05-10T08:32:59.307Z,85.11
2023-05-10T08:33:59.248Z,84.71
2023-05-10T08:34:59.354Z,84.34
2023-05-10T08:35:59.413Z,84.75
2023-05-10T08:36:59.500Z,85.19
2023-05-10T08:37:59.559Z,85.70
2023-05-10T08:38:59.656Z,85.84
2023-05-10T08:39:59.746Z,86.90
2023-05-10T08:41:00.126Z,87.60
2023-05-10T08:41:59.867Z,88.35
2023-05-10T08:42:59.966Z,88.66
2023-05-10T08:44:00.050Z,89.26
2023-05-10T08:45:00.159Z,90.18
2023-05-10T08:46:00.184Z,90.48
2023-05-10T08:47:00.327Z,90.69
2023-05-10T08:48:00.468Z,91.09
2023-05-10T08:49:00.393Z,91.30
2023-05-10T08:50:00.497Z,91.30
2023-05-10T08:51:00.552Z,91.50
2023-05-10T08:52:00.632Z,92.00
2023-05-10T08:53:00.720Z,92.00
2023-05-10T08:54:00.803Z,91.90
2023-05-10T08:55:00.940Z,92.00
2023-05-10T08:56:00.963Z,92.31
2023-05-10T08:57:01.042Z,92.41
2023-05-10T08:58:01.101Z,92.51
2023-05-10T08:59:01.198Z,92.47
2023-05-10T09:00:01.297Z,92.67
2023-05-10T09:01:01.417Z,92.87
2023-05-10T09:02:01.402Z,92.57
2023-05-10T09:03:01.556Z,91.96
2023-05-10T09:04:01.615Z,92.16
2023-05-10T09:05:01.727Z,92.12
2023-05-10T09:06:01.695Z,92.12
2023-05-10T09:07:01.777Z,92.52
2023-05-10T09:08:01.859Z,92.02
2023-05-10T09:09:01.944Z,92.02
2023-05-10T09:10:02.035Z,91.77
2023-05-10T09:11:02.111Z,92.08
2023-05-10T09:12:02.192Z,91.47
2023-05-10T09:13:02.277Z,91.06
2023-05-10T09:14:02.358Z,91.27
2023-05-10T09:15:02.470Z,91.42
2023-05-10T09:16:13.581Z,91.32
2023-05-10T09:17:02.688Z,91.18
2023-05-10T09:18:02.697Z,90.58
2023-05-10T09:19:02.832Z,90.47
2023-05-10T09:20:02.853Z,90.78
2023-05-10T09:21:02.936Z,90.58
2023-05-10T09:22:03.009Z,90.23
2023-05-10T09:23:03.112Z,89.83
2023-05-10T09:24:03.188Z,89.72
2023-05-10T09:25:03.295Z,89.28
2023-05-10T09:26:03.363Z,88.83
2023-05-10T09:27:03.456Z,88.59
2023-05-10T09:28:03.535Z,87.85
2023-05-10T09:29:03.626Z,85.16
2023-05-10T09:30:03.722Z,83.43
2023-05-10T09:31:03.881Z,81.84
2023-05-10T09:32:03.893Z,80.40
2023-05-10T09:33:04.024Z,80.50
2023-05-10T09:34:04.065Z,79.90
2023-05-10T09:35:04.189Z,78.39
2023-05-10T09:36:04.216Z,77.89
2023-05-10T09:37:04.308Z,78.09
2023-05-10T09:38:04.392Z,78.19
2023-05-10T09:39:04.482Z,79.03
2023-05-10T09:40:04.591Z,78.22
2023-05-10T09:41:04.633Z,78.36
2023-05-10T09:42:04.810Z,77.86
2023-05-10T09:43:04.799Z,78.23
2023-05-10T09:44:04.890Z,77.87
2023-05-10T09:45:04.980Z,78.81
2023-05-10T09:46:05.080Z,79.02
2023-05-10T09:47:05.148Z,79.16
2023-05-10T09:48:05.264Z,79.19
2023-05-10T09:49:05.296Z,80.50
2023-05-10T09:50:05.406Z,79.49
2023-05-10T09:51:05.442Z,80.66
2023-05-10T09:52:05.524Z,81.57
2023-05-10T09:53:05.623Z,80.87
2023-05-10T09:54:05.685Z,81.23
2023-05-10T09:55:05.778Z,80.99
2023-05-10T09:56:05.873Z,81.59
2023-05-10T09:57:05.944Z,81.46
2023-05-10T09:58:06.018Z,80.39
2023-05-10T09:59:06.092Z,80.58
2023-05-10T10:00:06.201Z,80.08
2023-05-10T10:01:06.257Z,80.63
2023-05-10T10:02:06.372Z,79.46
2023-05-10T10:03:06.490Z,80.60
2023-05-10T10:04:06.497Z,81.30
2023-05-10T10:05:06.707Z,81.65
2023-05-10T10:06:11.160Z,81.95
2023-05-10T10:07:06.727Z,81.24
2023-05-10T10:08:06.811Z,82.38
2023-05-10T10:09:06.894Z,81.13
2023-05-10T10:10:07.000Z,80.95
2023-05-10T10:11:07.044Z,79.47
2023-05-10T10:12:07.133Z,79.13
2023-05-10T10:13:07.214Z,77.42
2023-05-10T10:14:07.307Z,78.69
2023-05-10T10:15:07.435Z,77.45
2023-05-10T10:16:07.511Z,75.78
2023-05-10T10:17:08.949Z,75.14
2023-05-10T10:18:07.784Z,75.34
2023-05-10T10:19:07.736Z,75.98
2023-05-10T10:20:09.344Z,75.82
2023-05-10T10:21:07.913Z,75.62
2023-05-10T10:22:07.993Z,75.75
2023-05-10T10:23:08.034Z,75.99
2023-05-10T10:24:08.126Z,75.79
2023-05-10T10:25:08.222Z,74.41
2023-05-10T10:26:08.300Z,73.85
2023-05-10T10:27:08.356Z,74.05
2023-05-10T10:28:08.453Z,74.75
2023-05-10T10:29:08.540Z,75.70
2023-05-10T10:30:08.637Z,75.53
2023-05-10T10:31:08.745Z,75.73
2023-05-10T10:32:08.771Z,77.24
2023-05-10T10:33:20.230Z,76.14
2023-05-10T10:34:08.943Z,77.04
2023-05-10T10:35:09.063Z,76.10
2023-05-10T10:36:09.100Z,75.99
2023-05-10T10:37:09.176Z,75.66
2023-05-10T10:38:09.277Z,75.35
2023-05-10T10:39:09.342Z,75.42
2023-05-10T10:40:09.450Z,75.92
2023-05-10T10:41:09.493Z,74.68
2023-05-10T10:42:09.624Z,75.15
2023-05-10T10:43:09.656Z,73.87
2023-05-10T10:44:09.716Z,73.44
2023-05-10T10:45:09.812Z,71.80
2023-05-10T10:46:09.875Z,72.06
2023-05-10T10:47:10.001Z,70.66
2023-05-10T10:48:10.011Z,69.99
2023-05-10T10:49:10.086Z,70.09
2023-05-10T10:50:10.183Z,70.39
2023-05-10T10:51:12.251Z,68.99
2023-05-10T10:52:10.319Z,69.59
2023-05-10T10:53:10.433Z,69.09
2023-05-10T10:54:10.520Z,70.56
2023-05-10T10:55:10.595Z,70.96
2023-05-10T10:56:10.698Z,70.76
2023-05-10T10:57:10.758Z,70.26
2023-05-10T10:58:10.839Z,69.76
2023-05-10T10:59:10.908Z,69.26
2023-05-10T11:00:11.026Z,70.26
2023-05-10T11:01:11.179Z,70.36
2023-05-10T11:02:11.144Z,68.82
2023-05-10T11:03:11.276Z,69.23
2023-05-10T11:04:11.381Z,68.22
2023-05-10T11:05:11.376Z,68.82
2023-05-10T11:06:11.454Z,70.76
2023-05-10T11:07:11.530Z,68.92
2023-05-10T11:08:11.658Z,68.73
2023-05-10T11:09:11.811Z,67.89
2023-05-10T11:10:11.830Z,67.32
2023-05-10T11:11:11.869Z,67.22
2023-05-10T11:12:11.961Z,67.02
2023-05-10T11:13:12.036Z,67.82
2023-05-10T11:14:12.121Z,65.82
2023-05-10T11:15:12.321Z,66.18
2023-05-10T11:16:12.345Z,68.08
2023-05-10T11:17:12.416Z,68.39
2023-05-10T11:18:12.490Z,67.32
2023-05-10T11:19:12.538Z,67.88
2023-05-10T11:20:12.624Z,67.55
2023-05-10T11:21:12.708Z,66.45
2023-05-10T11:22:12.765Z,67.45
2023-05-10T11:23:12.947Z,67.96
2023-05-10T11:24:12.934Z,67.55
2023-05-10T11:25:13.026Z,66.75
2023-05-10T11:26:13.113Z,66.05
2023-05-10T11:27:13.198Z,65.85
2023-05-10T11:28:13.277Z,65.75
2023-05-10T11:29:13.348Z,65.95
2023-05-10T11:30:13.631Z,66.05
2023-05-10T11:31:13.545Z,67.85
2023-05-10T11:32:13.601Z,68.29
2023-05-10T11:33:13.678Z,67.49
2023-05-10T11:34:13.766Z,67.29
2023-05-10T11:35:13.855Z,66.58
2023-05-10T11:36:13.939Z,66.68
2023-05-10T11:37:14.017Z,66.58
2023-05-10T11:38:14.109Z,66.61
2023-05-10T11:39:14.199Z,66.41
2023-05-10T11:40:14.365Z,67.02
2023-05-10T11:41:14.361Z,67.42
2023-05-10T11:42:14.468Z,67.65
2023-05-10T11:43:14.530Z,68.85
2023-05-10T11:44:14.608Z,69.99
2023-05-10T11:45:14.701Z,68.59
2023-05-10T11:46:14.835Z,67.98
2023-05-10T11:47:14.856Z,68.35
2023-05-10T11:48:14.973Z,68.12
2023-05-10T11:49:15.042Z,67.61
2023-05-10T11:50:15.589Z,68.22
2023-05-10T11:51:15.169Z,67.22
2023-05-10T11:52:15.270Z,67.61
2023-05-10T11:53:15.339Z,68.52
2023-05-10T11:54:15.431Z,67.61
2023-05-10T11:55:15.507Z,66.75
2023-05-10T11:56:15.593Z,67.55
2023-05-10T11:57:15.665Z,68.55
2023-05-10T11:58:15.760Z,69.26
2023-05-10T11:59:15.859Z,68.65
2023-05-10T12:00:16.203Z,69.06
2023-05-10T12:01:15.990Z,68.76
2023-05-10T12:02:16.182Z,69.35
2023-05-10T12:03:16.259Z,68.35
2023-05-10T12:04:16.385Z,68.92
2023-05-10T12:05:16.359Z,68.99
2023-05-10T12:06:16.403Z,67.99
2023-05-10T12:07:16.477Z,67.49
2023-05-10T12:08:16.606Z,66.88
2023-05-10T12:09:17.677Z,66.61
2023-05-10T12:10:16.903Z,66.88
2023-05-10T12:11:16.818Z,67.38
2023-05-10T12:12:16.902Z,67.38
2023-05-10T12:13:16.983Z,67.08
2023-05-10T12:14:17.076Z,67.79
2023-05-10T12:15:17.191Z,67.88
2023-05-10T12:16:17.265Z,68.02
2023-05-10T12:17:17.319Z,69.96
2023-05-10T12:18:17.524Z,69.46
2023-05-10T12:19:17.518Z,69.09
2023-05-10T12:20:17.965Z,68.88
2023-05-10T12:21:17.626Z,68.82
2023-05-10T12:22:17.711Z,69.22
2023-05-10T12:23:17.795Z,68.72
2023-05-10T12:24:17.899Z,69.65
2023-05-10T12:25:17.987Z,69.56
2023-05-10T12:26:18.058Z,70.59
2023-05-10T12:27:18.129Z,70.79
2023-05-10T12:28:18.238Z,71.33
2023-05-10T12:29:18.362Z,72.34
2023-05-10T12:30:18.780Z,72.03
2023-05-10T12:31:18.520Z,72.24
2023-05-10T12:32:18.550Z,72.64
2023-05-10T12:33:18.622Z,71.73
2023-05-10T12:34:18.721Z,71.63
2023-05-10T12:35:18.807Z,71.94
2023-05-10T12:36:18.882Z,71.13
2023-05-10T12:37:18.972Z,71.53
2023-05-10T12:38:19.053Z,71.94
2023-05-10T12:39:19.137Z,71.73
2023-05-10T12:40:19.428Z,71.43
2023-05-10T12:41:19.360Z,71.94
2023-05-10T12:42:19.389Z,72.20
2023-05-10T12:43:19.476Z,72.20
2023-05-10T12:44:19.565Z,71.90
2023-05-10T12:45:19.674Z,72.10
2023-05-10T12:46:19.777Z,72.00
2023-05-10T12:47:19.816Z,70.46
2023-05-10T12:48:19.906Z,69.85
2023-05-10T12:49:20.007Z,69.56
2023-05-10T12:50:20.085Z,70.66
2023-05-10T12:51:20.164Z,70.86
2023-05-10T12:52:20.239Z,69.76
2023-05-10T12:53:20.316Z,69.06